Terminal Aerodrome Forecast
Issued by NWS

Home | Current Version | Previous Version | Text Only | Print | Product List | Glossary Off
Versions: 1 2 3 4 5 6 7 8 9 10 11 12 13 14 15
000 FTUS43 KABR 072323 TAFPIR TAF KPIR 072323Z 0800/0824 12015G24KT P6SM SCT250 FM080900 10017G28KT P6SM VCSH OVC040 FM081200 09017G28KT 3SM -SHRA BR OVC015 FM082000 10017G28KT 5SM -SHRA BR OVC007=

USA.gov is the U.S. government's official web portal to all federal, state and local government web resources and services.